sensor_id;sensor_type;location;lat;lon;timestamp;temperature;humidity
34646;DHT22;20857;47.808;12.482;2022-11-20T00:02:24;6.30;99.90
34646;DHT22;20857;47.808;12.482;2022-11-20T00:04:49;6.10;99.90
34646;DHT22;20857;47.808;12.482;2022-11-20T00:07:15;6.20;99.90
34646;DHT22;20857;47.808;12.482;2022-11-20T00:09:40;6.20;99.90
34646;DHT22;20857;47.808;12.482;2022-11-20T00:12:06;6.00;99.90
34646;DHT22;20857;47.808;12.482;2022-11-20T00:14:31;6.20;99.90
34646;DHT22;20857;47.808;12.482;2022-11-20T00:16:57;6.20;99.90
34646;DHT22;20857;47.808;12.482;2022-11-20T00:19:22;6.20;99.90
34646;DHT22;20857;47.808;12.482;2022-11-20T00:21:48;6.30;99.90
34646;DHT22;20857;47.808;12.482;2022-11-20T00:24:16;6.20;99.90
34646;DHT22;20857;47.808;12.482;2022-11-20T00:26:42;6.30;99.90
34646;DHT22;20857;47.808;12.482;2022-11-20T00:29:08;6.20;99.90
34646;DHT22;20857;47.808;12.482;2022-11-20T00:31:34;6.10;99.90
34646;DHT22;20857;47.808;12.482;2022-11-20T00:34:00;6.30;99.90
34646;DHT22;20857;47.808;12.482;2022-11-20T00:36:26;6.10;99.90
34646;DHT22;20857;47.808;12.482;2022-11-20T00:38:52;6.20;99.90
34646;DHT22;20857;47.808;12.482;2022-11-20T00:41:19;6.40;99.90
34646;DHT22;20857;47.808;12.482;2022-11-20T00:44:01;6.40;99.90
34646;DHT22;20857;47.808;12.482;2022-11-20T00:46:28;6.30;99.90
34646;DHT22;20857;47.808;12.482;2022-11-20T00:48:54;6.30;99.90
34646;DHT22;20857;47.808;12.482;2022-11-20T00:51:21;6.30;99.90
34646;DHT22;20857;47.808;12.482;2022-11-20T00:53:47;6.30;99.90
34646;DHT22;20857;47.808;12.482;2022-11-20T00:56:14;6.30;99.90
34646;DHT22;20857;47.808;12.482;2022-11-20T00:58:41;6.30;99.90
34646;DHT22;20857;47.808;12.482;2022-11-20T01:01:08;6.30;99.90
34646;DHT22;20857;47.808;12.482;2022-11-20T01:03:34;6.30;99.90
34646;DHT22;20857;47.808;12.482;2022-11-20T01:06:00;6.30;99.90
34646;DHT22;20857;47.808;12.482;2022-11-20T01:08:28;6.30;99.90
34646;DHT22;20857;47.808;12.482;2022-11-20T01:10:58;6.20;99.90
34646;DHT22;20857;47.808;12.482;2022-11-20T01:13:23;6.30;99.90
34646;DHT22;20857;47.808;12.482;2022-11-20T01:16:16;6.30;99.90
34646;DHT22;20857;47.808;12.482;2022-11-20T01:18:44;6.30;99.90
34646;DHT22;20857;47.808;12.482;2022-11-20T01:21:11;6.30;99.90
34646;DHT22;20857;47.808;12.482;2022-11-20T01:23:37;6.30;99.90
34646;DHT22;20857;47.808;12.482;2022-11-20T01:26:04;6.30;99.90
34646;DHT22;20857;47.808;12.482;2022-11-20T01:28:30;6.20;99.90
34646;DHT22;20857;47.808;12.482;2022-11-20T01:30:56;6.20;99.90
34646;DHT22;20857;47.808;12.482;2022-11-20T01:33:21;6.10;99.90
34646;DHT22;20857;47.808;12.482;2022-11-20T01:35:47;6.00;99.90
34646;DHT22;20857;47.808;12.482;2022-11-20T01:38:12;6.10;99.90
34646;DHT22;20857;47.808;12.482;2022-11-20T01:40:39;6.20;99.90
34646;DHT22;20857;47.808;12.482;2022-11-20T01:43:17;6.20;99.90
34646;DHT22;20857;47.808;12.482;2022-11-20T01:48:11;6.30;99.90
34646;DHT22;20857;47.808;12.482;2022-11-20T01:50:37;6.20;99.90
34646;DHT22;20857;47.808;12.482;2022-11-20T01:53:07;6.20;99.90
34646;DHT22;20857;47.808;12.482;2022-11-20T01:55:34;6.20;99.90
34646;DHT22;20857;47.808;12.482;2022-11-20T01:58:01;6.20;99.90
34646;DHT22;20857;47.808;12.482;2022-11-20T02:00:27;6.20;99.90
34646;DHT22;20857;47.808;12.482;2022-11-20T02:02:54;6.10;99.90
34646;DHT22;20857;47.808;12.482;2022-11-20T02:05:27;6.20;99.90
34646;DHT22;20857;47.808;12.482;2022-11-20T02:07:54;6.30;99.90
34646;DHT22;20857;47.808;12.482;2022-11-20T02:10:21;6.30;99.90
34646;DHT22;20857;47.808;12.482;2022-11-20T02:12:47;6.30;99.90
34646;DHT22;20857;47.808;12.482;2022-11-20T02:15:32;6.30;99.90
34646;DHT22;20857;47.808;12.482;2022-11-20T02:17:58;6.30;99.90
34646;DHT22;20857;47.808;12.482;2022-11-20T02:20:23;6.30;99.90
34646;DHT22;20857;47.808;12.482;2022-11-20T02:23:32;6.30;99.90
34646;DHT22;20857;47.808;12.482;2022-11-20T02:25:38;6.30;99.90
34646;DHT22;20857;47.808;12.482;2022-11-20T02:28:04;6.30;99.90
34646;DHT22;20857;47.808;12.482;2022-11-20T02:30:30;6.20;99.90
34646;DHT22;20857;47.808;12.482;2022-11-20T02:32:57;6.20;99.90
34646;DHT22;20857;47.808;12.482;2022-11-20T02:37:48;6.10;99.90
34646;DHT22;20857;47.808;12.482;2022-11-20T02:40:15;6.30;99.90
34646;DHT22;20857;47.808;12.482;2022-11-20T02:42:40;6.30;99.90
34646;DHT22;20857;47.808;12.482;2022-11-20T02:45:06;6.10;99.90
34646;DHT22;20857;47.808;12.482;2022-11-20T02:47:31;6.20;99.90
34646;DHT22;20857;47.808;12.482;2022-11-20T02:49:57;6.10;99.90
34646;DHT22;20857;47.808;12.482;2022-11-20T02:52:23;5.80;99.90
34646;DHT22;20857;47.808;12.482;2022-11-20T02:54:49;5.90;99.90
34646;DHT22;20857;47.808;12.482;2022-11-20T02:57:14;5.70;99.90
34646;DHT22;20857;47.808;12.482;2022-11-20T02:59:40;5.90;99.90
34646;DHT22;20857;47.808;12.482;2022-11-20T03:02:05;5.90;99.90
34646;DHT22;20857;47.808;12.482;2022-11-20T03:04:31;5.70;99.90
34646;DHT22;20857;47.808;12.482;2022-11-20T03:06:56;5.80;99.90
34646;DHT22;20857;47.808;12.482;2022-11-20T03:09:22;5.90;99.90
34646;DHT22;20857;47.808;12.482;2022-11-20T03:11:47;6.00;99.90
34646;DHT22;20857;47.808;12.482;2022-11-20T03:14:13;5.80;99.90
34646;DHT22;20857;47.808;12.482;2022-11-20T03:16:39;5.90;99.90
34646;DHT22;20857;47.808;12.482;2022-11-20T03:19:04;6.00;99.90
34646;DHT22;20857;47.808;12.482;2022-11-20T03:21:30;5.90;99.90
34646;DHT22;20857;47.808;12.482;2022-11-20T03:23:57;6.10;99.90
34646;DHT22;20857;47.808;12.482;2022-11-20T03:26:24;6.10;99.90
34646;DHT22;20857;47.808;12.482;2022-11-20T03:28:51;6.10;99.90
34646;DHT22;20857;47.808;12.482;2022-11-20T03:31:18;6.20;99.90
34646;DHT22;20857;47.808;12.482;2022-11-20T03:33:44;6.20;99.90
34646;DHT22;20857;47.808;12.482;2022-11-20T03:36:11;6.00;99.90
34646;DHT22;20857;47.808;12.482;2022-11-20T03:38:36;6.20;99.90
34646;DHT22;20857;47.808;12.482;2022-11-20T03:41:03;6.20;99.90
34646;DHT22;20857;47.808;12.482;2022-11-20T03:43:30;6.30;99.90
34646;DHT22;20857;47.808;12.482;2022-11-20T03:45:55;6.40;99.90
34646;DHT22;20857;47.808;12.482;2022-11-20T03:48:21;6.20;99.90
34646;DHT22;20857;47.808;12.482;2022-11-20T03:50:46;6.30;99.90
34646;DHT22;20857;47.808;12.482;2022-11-20T03:53:15;6.30;99.90
34646;DHT22;20857;47.808;12.482;2022-11-20T03:55:40;6.30;99.90
34646;DHT22;20857;47.808;12.482;2022-11-20T03:58:06;6.20;99.90
34646;DHT22;20857;47.808;12.482;2022-11-20T04:00:31;6.20;99.90
34646;DHT22;20857;47.808;12.482;2022-11-20T04:03:00;6.20;99.90
34646;DHT22;20857;47.808;12.482;2022-11-20T04:05:26;6.30;99.90
34646;DHT22;20857;47.808;12.482;2022-11-20T04:07:51;6.10;99.90
34646;DHT22;20857;47.808;12.482;2022-11-20T04:10:17;6.20;99.90
34646;DHT22;20857;47.808;12.482;2022-11-20T04:12:42;6.30;99.90
34646;DHT22;20857;47.808;12.482;2022-11-20T04:15:08;6.20;99.90
34646;DHT22;20857;47.808;12.482;2022-11-20T04:17:34;6.20;99.90
34646;DHT22;20857;47.808;12.482;2022-11-20T04:19:59;6.00;99.90
34646;DHT22;20857;47.808;12.482;2022-11-20T04:22:25;6.20;99.90
34646;DHT22;20857;47.808;12.482;2022-11-20T04:24:50;6.10;99.90
34646;DHT22;20857;47.808;12.482;2022-11-20T04:27:15;6.20;99.90
34646;DHT22;20857;47.808;12.482;2022-11-20T04:29:41;6.00;99.90
34646;DHT22;20857;47.808;12.482;2022-11-20T04:32:06;5.90;99.90
34646;DHT22;20857;47.808;12.482;2022-11-20T04:34:32;5.90;99.90
34646;DHT22;20857;47.808;12.482;2022-11-20T04:36:57;6.10;99.90
34646;DHT22;20857;47.808;12.482;2022-11-20T04:39:23;5.90;99.90
34646;DHT22;20857;47.808;12.482;2022-11-20T04:41:48;6.00;99.90
34646;DHT22;20857;47.808;12.482;2022-11-20T04:44:34;5.90;99.90
34646;DHT22;20857;47.808;12.482;2022-11-20T04:46:59;5.80;99.90
34646;DHT22;20857;47.808;12.482;2022-11-20T04:49:25;5.80;99.90
34646;DHT22;20857;47.808;12.482;2022-11-20T04:51:52;5.80;99.90
34646;DHT22;20857;47.808;12.482;2022-11-20T04:54:18;5.90;99.90
34646;DHT22;20857;47.808;12.482;2022-11-20T04:56:48;5.90;99.90
34646;DHT22;20857;47.808;12.482;2022-11-20T04:59:14;5.90;99.90
34646;DHT22;20857;47.808;12.482;2022-11-20T05:01:39;5.70;99.90
34646;DHT22;20857;47.808;12.482;2022-11-20T05:04:05;5.80;99.90
34646;DHT22;20857;47.808;12.482;2022-11-20T05:06:31;5.80;99.90
34646;DHT22;20857;47.808;12.482;2022-11-20T05:08:56;5.90;99.90
34646;DHT22;20857;47.808;12.482;2022-11-20T05:11:22;5.90;99.90
34646;DHT22;20857;47.808;12.482;2022-11-20T05:13:48;5.70;99.90
34646;DHT22;20857;47.808;12.482;2022-11-20T05:16:15;5.90;99.90
34646;DHT22;20857;47.808;12.482;2022-11-20T05:18:40;5.90;99.90
34646;DHT22;20857;47.808;12.482;2022-11-20T05:21:06;5.80;99.90
34646;DHT22;20857;47.808;12.482;2022-11-20T05:23:32;5.80;99.90
34646;DHT22;20857;47.808;12.482;2022-11-20T05:25:58;5.80;99.90
34646;DHT22;20857;47.808;12.482;2022-11-20T05:28:24;5.80;99.90
34646;DHT22;20857;47.808;12.482;2022-11-20T05:30:50;5.80;99.90
34646;DHT22;20857;47.808;12.482;2022-11-20T05:33:15;5.70;99.90
34646;DHT22;20857;47.808;12.482;2022-11-20T05:35:41;5.80;99.90
34646;DHT22;20857;47.808;12.482;2022-11-20T05:38:07;5.70;99.90
34646;DHT22;20857;47.808;12.482;2022-11-20T05:40:32;5.90;99.90
34646;DHT22;20857;47.808;12.482;2022-11-20T05:42:57;5.90;99.90
34646;DHT22;20857;47.808;12.482;2022-11-20T05:45:23;5.80;99.90
34646;DHT22;20857;47.808;12.482;2022-11-20T05:47:48;5.90;99.90
34646;DHT22;20857;47.808;12.482;2022-11-20T05:50:14;5.90;99.90
34646;DHT22;20857;47.808;12.482;2022-11-20T05:52:40;5.90;99.90
34646;DHT22;20857;47.808;12.482;2022-11-20T05:55:05;5.80;99.90
34646;DHT22;20857;47.808;12.482;2022-11-20T05:57:31;5.90;99.90
34646;DHT22;20857;47.808;12.482;2022-11-20T05:59:57;5.80;99.90
34646;DHT22;20857;47.808;12.482;2022-11-20T06:02:22;5.80;99.90
34646;DHT22;20857;47.808;12.482;2022-11-20T06:04:48;5.90;99.90
34646;DHT22;20857;47.808;12.482;2022-11-20T06:07:13;5.80;99.90
34646;DHT22;20857;47.808;12.482;2022-11-20T06:09:39;5.80;99.90
34646;DHT22;20857;47.808;12.482;2022-11-20T06:12:04;6.00;99.90
34646;DHT22;20857;47.808;12.482;2022-11-20T06:14:30;5.90;99.90
34646;DHT22;20857;47.808;12.482;2022-11-20T06:16:55;5.90;99.90
34646;DHT22;20857;47.808;12.482;2022-11-20T06:19:21;5.80;99.90
34646;DHT22;20857;47.808;12.482;2022-11-20T06:21:47;5.80;99.90
34646;DHT22;20857;47.808;12.482;2022-11-20T06:24:13;5.90;99.90
34646;DHT22;20857;47.808;12.482;2022-11-20T06:26:38;5.80;99.90
34646;DHT22;20857;47.808;12.482;2022-11-20T06:29:04;6.00;99.90
34646;DHT22;20857;47.808;12.482;2022-11-20T06:31:29;5.80;99.90
34646;DHT22;20857;47.808;12.482;2022-11-20T06:33:57;5.90;99.90
34646;DHT22;20857;47.808;12.482;2022-11-20T06:36:23;6.00;99.90
34646;DHT22;20857;47.808;12.482;2022-11-20T06:38:49;5.90;99.90
34646;DHT22;20857;47.808;12.482;2022-11-20T06:41:15;6.10;99.90
34646;DHT22;20857;47.808;12.482;2022-11-20T06:43:41;5.90;99.90
34646;DHT22;20857;47.808;12.482;2022-11-20T06:46:06;5.90;99.90
34646;DHT22;20857;47.808;12.482;2022-11-20T06:48:32;5.90;99.90
34646;DHT22;20857;47.808;12.482;2022-11-20T06:50:59;6.00;99.90
34646;DHT22;20857;47.808;12.482;2022-11-20T06:53:24;6.10;99.90
34646;DHT22;20857;47.808;12.482;2022-11-20T06:55:50;6.10;99.90
34646;DHT22;20857;47.808;12.482;2022-11-20T06:58:16;6.20;99.90
34646;DHT22;20857;47.808;12.482;2022-11-20T07:00:42;6.20;99.90
34646;DHT22;20857;47.808;12.482;2022-11-20T07:03:08;6.10;99.90
34646;DHT22;20857;47.808;12.482;2022-11-20T07:05:35;6.20;99.90
34646;DHT22;20857;47.808;12.482;2022-11-20T07:08:01;6.30;99.90
34646;DHT22;20857;47.808;12.482;2022-11-20T07:10:26;6.30;99.90
34646;DHT22;20857;47.808;12.482;2022-11-20T07:12:52;6.10;99.90
34646;DHT22;20857;47.808;12.482;2022-11-20T07:15:18;6.20;99.90
34646;DHT22;20857;47.808;12.482;2022-11-20T07:17:43;6.30;99.90
34646;DHT22;20857;47.808;12.482;2022-11-20T07:20:09;6.20;99.90
34646;DHT22;20857;47.808;12.482;2022-11-20T07:22:34;6.20;99.90
34646;DHT22;20857;47.808;12.482;2022-11-20T07:25:00;6.10;99.90
34646;DHT22;20857;47.808;12.482;2022-11-20T07:27:27;6.30;99.90
34646;DHT22;20857;47.808;12.482;2022-11-20T07:29:52;6.30;99.90
34646;DHT22;20857;47.808;12.482;2022-11-20T07:32:18;6.20;99.90
34646;DHT22;20857;47.808;12.482;2022-11-20T07:34:43;6.30;99.90
34646;DHT22;20857;47.808;12.482;2022-11-20T07:37:09;6.20;99.90
34646;DHT22;20857;47.808;12.482;2022-11-20T07:39:34;6.40;99.90
34646;DHT22;20857;47.808;12.482;2022-11-20T07:41:59;6.20;99.90
34646;DHT22;20857;47.808;12.482;2022-11-20T07:44:25;6.20;99.90
34646;DHT22;20857;47.808;12.482;2022-11-20T07:46:50;6.20;99.90
34646;DHT22;20857;47.808;12.482;2022-11-20T07:49:16;6.20;99.90
34646;DHT22;20857;47.808;12.482;2022-11-20T07:51:41;6.30;99.90
34646;DHT22;20857;47.808;12.482;2022-11-20T07:54:07;6.30;99.90
34646;DHT22;20857;47.808;12.482;2022-11-20T07:56:32;6.40;99.90
34646;DHT22;20857;47.808;12.482;2022-11-20T07:58:58;6.50;99.90
34646;DHT22;20857;47.808;12.482;2022-11-20T08:01:23;6.50;99.90
34646;DHT22;20857;47.808;12.482;2022-11-20T08:03:49;6.50;99.90
34646;DHT22;20857;47.808;12.482;2022-11-20T08:06:14;6.60;99.90
34646;DHT22;20857;47.808;12.482;2022-11-20T08:08:40;6.50;99.90
34646;DHT22;20857;47.808;12.482;2022-11-20T08:11:05;6.50;99.90
34646;DHT22;20857;47.808;12.482;2022-11-20T08:13:50;6.40;99.90
34646;DHT22;20857;47.808;12.482;2022-11-20T08:16:36;6.50;99.90
34646;DHT22;20857;47.808;12.482;2022-11-20T08:19:01;7.40;99.90
34646;DHT22;20857;47.808;12.482;2022-11-20T08:21:27;6.40;99.90
34646;DHT22;20857;47.808;12.482;2022-11-20T08:23:52;6.20;99.90
34646;DHT22;20857;47.808;12.482;2022-11-20T08:26:18;6.40;99.90
34646;DHT22;20857;47.808;12.482;2022-11-20T08:28:43;6.20;99.90
34646;DHT22;20857;47.808;12.482;2022-11-20T08:31:09;6.40;99.90
34646;DHT22;20857;47.808;12.482;2022-11-20T08:33:34;6.30;99.90
34646;DHT22;20857;47.808;12.482;2022-11-20T08:36:01;6.40;99.90
34646;DHT22;20857;47.808;12.482;2022-11-20T08:38:26;6.40;99.90
34646;DHT22;20857;47.808;12.482;2022-11-20T08:40:52;6.50;99.90
34646;DHT22;20857;47.808;12.482;2022-11-20T08:43:36;6.50;99.90
34646;DHT22;20857;47.808;12.482;2022-11-20T08:46:01;6.40;99.90
34646;DHT22;20857;47.808;12.482;2022-11-20T08:48:27;6.30;99.90
34646;DHT22;20857;47.808;12.482;2022-11-20T08:50:52;6.30;99.90
34646;DHT22;20857;47.808;12.482;2022-11-20T08:53:18;6.30;99.90
34646;DHT22;20857;47.808;12.482;2022-11-20T08:55:43;6.40;99.90
34646;DHT22;20857;47.808;12.482;2022-11-20T08:58:08;6.50;99.90
34646;DHT22;20857;47.808;12.482;2022-11-20T09:00:34;6.40;99.90
34646;DHT22;20857;47.808;12.482;2022-11-20T09:03:00;6.30;99.90
34646;DHT22;20857;47.808;12.482;2022-11-20T09:05:26;6.40;99.90
34646;DHT22;20857;47.808;12.482;2022-11-20T09:07:51;6.40;99.90
34646;DHT22;20857;47.808;12.482;2022-11-20T09:10:17;6.50;99.90
34646;DHT22;20857;47.808;12.482;2022-11-20T09:12:42;6.40;99.90
34646;DHT22;20857;47.808;12.482;2022-11-20T09:15:08;6.40;99.90
34646;DHT22;20857;47.808;12.482;2022-11-20T09:17:34;6.50;99.90
34646;DHT22;20857;47.808;12.482;2022-11-20T09:20:00;6.50;99.90
34646;DHT22;20857;47.808;12.482;2022-11-20T09:22:25;6.50;99.90
34646;DHT22;20857;47.808;12.482;2022-11-20T09:24:51;6.50;99.90
34646;DHT22;20857;47.808;12.482;2022-11-20T09:27:16;6.50;99.90
34646;DHT22;20857;47.808;12.482;2022-11-20T09:29:46;6.70;99.90
34646;DHT22;20857;47.808;12.482;2022-11-20T09:32:12;6.90;99.90
34646;DHT22;20857;47.808;12.482;2022-11-20T09:34:37;6.80;99.90
34646;DHT22;20857;47.808;12.482;2022-11-20T09:37:03;6.90;99.90
34646;DHT22;20857;47.808;12.482;2022-11-20T09:39:29;7.00;99.90
34646;DHT22;20857;47.808;12.482;2022-11-20T09:49:35;7.20;99.90
34646;DHT22;20857;47.808;12.482;2022-11-20T09:52:13;7.50;99.90
34646;DHT22;20857;47.808;12.482;2022-11-20T09:54:42;7.70;99.90
34646;DHT22;20857;47.808;12.482;2022-11-20T09:57:09;7.80;99.90
34646;DHT22;20857;47.808;12.482;2022-11-20T10:02:02;7.70;99.90
34646;DHT22;20857;47.808;12.482;2022-11-20T10:04:29;7.60;99.90
34646;DHT22;20857;47.808;12.482;2022-11-20T10:09:55;7.70;99.90
34646;DHT22;20857;47.808;12.482;2022-11-20T10:14:52;7.80;99.90
34646;DHT22;20857;47.808;12.482;2022-11-20T10:29:46;8.50;99.90
34646;DHT22;20857;47.808;12.482;2022-11-20T10:32:19;8.60;99.90
34646;DHT22;20857;47.808;12.482;2022-11-20T10:37:23;8.60;99.90
34646;DHT22;20857;47.808;12.482;2022-11-20T10:39:55;8.80;99.90
34646;DHT22;20857;47.808;12.482;2022-11-20T10:42:27;8.70;99.90
34646;DHT22;20857;47.808;12.482;2022-11-20T10:44:58;8.60;99.90
34646;DHT22;20857;47.808;12.482;2022-11-20T10:47:28;8.90;99.90
34646;DHT22;20857;47.808;12.482;2022-11-20T10:49:57;8.80;99.90
34646;DHT22;20857;47.808;12.482;2022-11-20T10:52:36;8.80;99.90
34646;DHT22;20857;47.808;12.482;2022-11-20T11:00:30;9.20;99.90
34646;DHT22;20857;47.808;12.482;2022-11-20T11:02:55;9.40;99.90
34646;DHT22;20857;47.808;12.482;2022-11-20T11:08:12;9.50;99.90
34646;DHT22;20857;47.808;12.482;2022-11-20T11:10:42;9.60;99.90
34646;DHT22;20857;47.808;12.482;2022-11-20T11:13:32;9.70;99.90
34646;DHT22;20857;47.808;12.482;2022-11-20T11:15:57;9.80;99.90
34646;DHT22;20857;47.808;12.482;2022-11-20T11:18:27;9.80;99.90
34646;DHT22;20857;47.808;12.482;2022-11-20T11:20:53;9.80;99.90
34646;DHT22;20857;47.808;12.482;2022-11-20T11:23:30;9.70;99.90
34646;DHT22;20857;47.808;12.482;2022-11-20T11:25:57;9.60;99.90
34646;DHT22;20857;47.808;12.482;2022-11-20T11:28:24;9.60;99.90
34646;DHT22;20857;47.808;12.482;2022-11-20T11:30:51;9.50;99.90
34646;DHT22;20857;47.808;12.482;2022-11-20T11:33:21;9.60;99.90
34646;DHT22;20857;47.808;12.482;2022-11-20T11:38:28;9.60;99.90
34646;DHT22;20857;47.808;12.482;2022-11-20T11:40:55;9.50;99.90
34646;DHT22;20857;47.808;12.482;2022-11-20T11:43:22;9.60;99.90
34646;DHT22;20857;47.808;12.482;2022-11-20T11:46:21;9.60;99.90
34646;DHT22;20857;47.808;12.482;2022-11-20T11:48:59;9.60;99.90
34646;DHT22;20857;47.808;12.482;2022-11-20T11:51:26;9.80;99.90
34646;DHT22;20857;47.808;12.482;2022-11-20T11:53:54;9.80;99.90
34646;DHT22;20857;47.808;12.482;2022-11-20T11:56:20;10.00;99.90
34646;DHT22;20857;47.808;12.482;2022-11-20T11:58:52;10.00;99.90
34646;DHT22;20857;47.808;12.482;2022-11-20T12:01:24;10.30;99.90
34646;DHT22;20857;47.808;12.482;2022-11-20T12:03:55;10.20;99.90
34646;DHT22;20857;47.808;12.482;2022-11-20T12:06:24;9.90;99.90
34646;DHT22;20857;47.808;12.482;2022-11-20T12:09:02;9.90;99.90
34646;DHT22;20857;47.808;12.482;2022-11-20T12:11:39;9.90;99.90
34646;DHT22;20857;47.808;12.482;2022-11-20T12:14:13;10.10;99.50
34646;DHT22;20857;47.808;12.482;2022-11-20T12:16:40;10.20;99.90
34646;DHT22;20857;47.808;12.482;2022-11-20T12:19:12;10.20;99.90
34646;DHT22;20857;47.808;12.482;2022-11-20T12:34:23;10.20;99.90
34646;DHT22;20857;47.808;12.482;2022-11-20T12:37:05;10.30;99.70
34646;DHT22;20857;47.808;12.482;2022-11-20T12:39:40;10.20;99.90
34646;DHT22;20857;47.808;12.482;2022-11-20T12:42:13;10.20;99.90
34646;DHT22;20857;47.808;12.482;2022-11-20T12:53:05;10.30;99.90
34646;DHT22;20857;47.808;12.482;2022-11-20T12:55:49;10.30;99.90
34646;DHT22;20857;47.808;12.482;2022-11-20T13:03:57;9.80;99.90
34646;DHT22;20857;47.808;12.482;2022-11-20T13:06:23;9.70;99.90
34646;DHT22;20857;47.808;12.482;2022-11-20T13:08:53;9.70;99.90
34646;DHT22;20857;47.808;12.482;2022-11-20T13:11:21;9.70;99.90
34646;DHT22;20857;47.808;12.482;2022-11-20T13:13:59;9.60;99.90
34646;DHT22;20857;47.808;12.482;2022-11-20T13:18:54;9.50;99.90
34646;DHT22;20857;47.808;12.482;2022-11-20T13:21:34;9.40;99.90
34646;DHT22;20857;47.808;12.482;2022-11-20T13:24:04;9.60;99.90
34646;DHT22;20857;47.808;12.482;2022-11-20T13:26:29;9.60;99.90
34646;DHT22;20857;47.808;12.482;2022-11-20T13:29:11;9.50;99.90
34646;DHT22;20857;47.808;12.482;2022-11-20T13:31:38;9.50;99.90
34646;DHT22;20857;47.808;12.482;2022-11-20T13:34:05;9.60;99.90
34646;DHT22;20857;47.808;12.482;2022-11-20T13:36:31;9.60;99.90
34646;DHT22;20857;47.808;12.482;2022-11-20T13:38:57;9.60;99.90
34646;DHT22;20857;47.808;12.482;2022-11-20T13:41:36;9.50;99.90
34646;DHT22;20857;47.808;12.482;2022-11-20T13:44:06;9.60;99.90
34646;DHT22;20857;47.808;12.482;2022-11-20T13:46:35;9.30;99.90
34646;DHT22;20857;47.808;12.482;2022-11-20T13:49:05;9.30;99.90
34646;DHT22;20857;47.808;12.482;2022-11-20T13:56:47;9.10;99.90
34646;DHT22;20857;47.808;12.482;2022-11-20T13:59:26;9.00;99.90
34646;DHT22;20857;47.808;12.482;2022-11-20T14:01:55;9.00;99.90
34646;DHT22;20857;47.808;12.482;2022-11-20T14:04:25;8.90;99.90
34646;DHT22;20857;47.808;12.482;2022-11-20T14:06:51;8.90;99.90
34646;DHT22;20857;47.808;12.482;2022-11-20T14:09:27;8.80;99.90
34646;DHT22;20857;47.808;12.482;2022-11-20T14:11:53;8.80;99.90
34646;DHT22;20857;47.808;12.482;2022-11-20T14:14:19;8.70;99.90
34646;DHT22;20857;47.808;12.482;2022-11-20T14:16:46;8.70;99.90
34646;DHT22;20857;47.808;12.482;2022-11-20T14:21:47;8.50;99.90
34646;DHT22;20857;47.808;12.482;2022-11-20T14:24:13;8.40;99.90
34646;DHT22;20857;47.808;12.482;2022-11-20T14:26:42;8.40;99.90
34646;DHT22;20857;47.808;12.482;2022-11-20T14:29:17;8.30;99.90
34646;DHT22;20857;47.808;12.482;2022-11-20T14:31:44;8.30;99.90
34646;DHT22;20857;47.808;12.482;2022-11-20T14:34:13;8.00;99.90
34646;DHT22;20857;47.808;12.482;2022-11-20T14:36:40;8.00;99.90
34646;DHT22;20857;47.808;12.482;2022-11-20T14:39:10;7.70;99.90
34646;DHT22;20857;47.808;12.482;2022-11-20T14:41:36;7.50;99.90
34646;DHT22;20857;47.808;12.482;2022-11-20T14:44:01;7.40;99.90
34646;DHT22;20857;47.808;12.482;2022-11-20T14:46:28;7.30;99.90
34646;DHT22;20857;47.808;12.482;2022-11-20T14:48:56;7.20;99.90
34646;DHT22;20857;47.808;12.482;2022-11-20T14:53:53;7.20;99.90
34646;DHT22;20857;47.808;12.482;2022-11-20T14:56:22;7.10;99.90
34646;DHT22;20857;47.808;12.482;2022-11-20T14:58:56;7.30;99.90
34646;DHT22;20857;47.808;12.482;2022-11-20T15:01:25;7.20;99.90
34646;DHT22;20857;47.808;12.482;2022-11-20T15:03:57;7.10;99.90
34646;DHT22;20857;47.808;12.482;2022-11-20T15:06:27;7.10;99.90
34646;DHT22;20857;47.808;12.482;2022-11-20T15:08:53;7.10;99.90
34646;DHT22;20857;47.808;12.482;2022-11-20T15:11:19;7.00;99.90
34646;DHT22;20857;47.808;12.482;2022-11-20T15:13:45;7.10;99.90
34646;DHT22;20857;47.808;12.482;2022-11-20T15:16:18;7.00;99.90
34646;DHT22;20857;47.808;12.482;2022-11-20T15:18:43;7.00;99.90
34646;DHT22;20857;47.808;12.482;2022-11-20T15:21:10;6.90;99.90
34646;DHT22;20857;47.808;12.482;2022-11-20T15:23:36;6.80;99.90
34646;DHT22;20857;47.808;12.482;2022-11-20T15:26:01;6.70;99.90
34646;DHT22;20857;47.808;12.482;2022-11-20T15:28:30;6.80;99.90
34646;DHT22;20857;47.808;12.482;2022-11-20T15:30:57;6.80;99.90
34646;DHT22;20857;47.808;12.482;2022-11-20T15:33:22;6.70;99.90
34646;DHT22;20857;47.808;12.482;2022-11-20T15:35:48;6.60;99.90
34646;DHT22;20857;47.808;12.482;2022-11-20T15:38:13;6.60;99.90
34646;DHT22;20857;47.808;12.482;2022-11-20T15:40:39;6.50;99.90
34646;DHT22;20857;47.808;12.482;2022-11-20T15:43:04;6.40;99.90
34646;DHT22;20857;47.808;12.482;2022-11-20T15:45:37;6.50;99.90
34646;DHT22;20857;47.808;12.482;2022-11-20T15:48:04;6.50;99.90
34646;DHT22;20857;47.808;12.482;2022-11-20T15:50:38;6.50;99.90
34646;DHT22;20857;47.808;12.482;2022-11-20T15:53:04;6.50;99.90
34646;DHT22;20857;47.808;12.482;2022-11-20T15:55:30;6.40;99.90
34646;DHT22;20857;47.808;12.482;2022-11-20T15:57:55;6.50;99.90
34646;DHT22;20857;47.808;12.482;2022-11-20T16:00:21;6.40;99.90
34646;DHT22;20857;47.808;12.482;2022-11-20T16:02:46;6.50;99.90
34646;DHT22;20857;47.808;12.482;2022-11-20T16:05:12;6.50;99.90
34646;DHT22;20857;47.808;12.482;2022-11-20T16:07:38;6.40;99.90
34646;DHT22;20857;47.808;12.482;2022-11-20T16:10:03;6.40;99.90
34646;DHT22;20857;47.808;12.482;2022-11-20T16:12:29;6.40;99.90
34646;DHT22;20857;47.808;12.482;2022-11-20T16:15:13;6.20;99.90
34646;DHT22;20857;47.808;12.482;2022-11-20T16:17:57;6.30;99.90
34646;DHT22;20857;47.808;12.482;2022-11-20T16:20:23;7.30;99.90
34646;DHT22;20857;47.808;12.482;2022-11-20T16:22:48;6.30;99.90
34646;DHT22;20857;47.808;12.482;2022-11-20T16:25:13;6.20;99.90
34646;DHT22;20857;47.808;12.482;2022-11-20T16:27:39;6.20;99.90
34646;DHT22;20857;47.808;12.482;2022-11-20T16:30:05;6.40;99.90
34646;DHT22;20857;47.808;12.482;2022-11-20T16:32:32;6.30;99.90
34646;DHT22;20857;47.808;12.482;2022-11-20T16:34:57;6.30;99.90
34646;DHT22;20857;47.808;12.482;2022-11-20T16:37:23;6.40;99.90
34646;DHT22;20857;47.808;12.482;2022-11-20T16:39:48;6.30;99.90
34646;DHT22;20857;47.808;12.482;2022-11-20T16:42:13;6.30;99.90
34646;DHT22;20857;47.808;12.482;2022-11-20T16:44:39;6.30;99.90
34646;DHT22;20857;47.808;12.482;2022-11-20T16:47:04;6.20;99.90
34646;DHT22;20857;47.808;12.482;2022-11-20T16:49:30;6.10;99.90
34646;DHT22;20857;47.808;12.482;2022-11-20T16:51:57;6.20;99.90
34646;DHT22;20857;47.808;12.482;2022-11-20T16:54:23;6.20;99.90
34646;DHT22;20857;47.808;12.482;2022-11-20T16:56:49;6.20;99.90
34646;DHT22;20857;47.808;12.482;2022-11-20T16:59:16;6.10;99.90